Hauptseite
METAR-TAF:

METAR-TAF

Flughäfen :

Helsinki, Finnland

Flughafen Helsinki-Vantaa

Breite: 60-19N, Länge: 024-58E, Höhe: 51 m

Beobachtung

Neuester Wetterbericht von vor 26 Minuten, um 00:50 UTC
Wind 7 kt aus West
Temperatur -3°C
Luftfeuchtigkeit 74%
Luftdruck 1014 hPa
Sichtweite 10 km oder mehr
keine Wolken unter 1500 m und keine Kumulonimbus oder Gewitterwolken

METAR: EFHK 290050Z 28007KT CAVOK M03/M07 Q1014 NOSIG

Zeit: 04:16 (01:16 UTC)

Prognose

Neuester Wetterbericht von vor 1 Stunde und 53 Minuten, um 23:23 UTC
Gültige Prognose vom 29 um 00 UTC bis 29 um 24 UTC
Wind 6 kt aus West/Nordwest
Sichtweite 10 km oder mehr
keine Wolken unter 1500 m und keine Kumulonimbus oder Gewitterwolken
Wahrscheinlichkeit 30%
vom 29 um 09 UTC bis 29 um 15 UTC
Wind 15 kt aus Nord/Nordwest, Böen bis zu 25 kt

TAF: EFHK 282323Z 2900/2924 29006KT CAVOK PROB30 2909/2915 33015G25KT

Wetterbeobachtungen und Prognosen von mehr als 4000 Flughäfen (METAR und TAF Bericht).

Die verfügbaren Stationen werden durch gelbe und rote Markierungen auf der Karte dargestellt.

Führen Sie die Maus auf sie, um den Namen der Station zu sehen.

Darauf klicken, um die Beobachtung von Wetterbeobachtungen und Prognosen zu sehen.

Um die Karte zu ändern : klicken Sie auf den grünen Tasten mit einem schwarzen Kreuz Zum Vergrößern, auf den grünen Button mit einem Gedankenstrich zu verkleinern, oder auf die grünen Pfeile für benachbarte Karten.


METAR-TAF: